CFW8 weather

Grand Falls-Windsor Heliport
Grand Falls, Newfoundland and Labrador, Canada

Public forecast

Using degrees Celsius for public forecast. Weather courtesy of forecast.io.

METAR (pilot weather report)

Closest report is Gander International Airport, 42.6 nm (78.8 km) E. Retrieved 2019/09/23 19:00 UTC (23 minutes ago):

CYQX 231900Z 24015G22KT 15SM BKN018 BKN030 OVC063 19/15 A2936 RMK SC5SC2SC1 SLP944 DENSITY ALT 1800FT

TAF (pilot weather forecast)

Closest forecast is Gander International Airport, 42.6 nm (78.8 km) E. Retrieved 2019/09/23 18:42 UTC (41 minutes ago):

TAF TAF CYQX 231738Z 2318/2418 24015G25KT P6SM BKN025 TEMPO 2318/2406 5SM -SHRA BR BKN020 BECMG 2400/2402 28012G22KT FM240600 33012G22KT P6SM BKN020 BECMG 2410/2412 01008KT FM241600 01008KT P6SM BKN025 BECMG 2416/2418 SCT030 RMK NXT FCST BY 240000Z